sensor_id;sensor_type;location;lat;lon;timestamp;P1;durP1;ratioP1;P2;durP2;ratioP2
10116;SDS011;5098;48.792;9.012;2023-05-10T00:01:13;1.37;;;0.80;;
10116;SDS011;5098;48.792;9.012;2023-05-10T00:03:39;1.23;;;0.60;;
10116;SDS011;5098;48.792;9.012;2023-05-10T00:06:05;1.10;;;0.87;;
10116;SDS011;5098;48.792;9.012;2023-05-10T00:08:31;0.70;;;0.70;;
10116;SDS011;5098;48.792;9.012;2023-05-10T00:10:57;0.60;;;0.57;;
10116;SDS011;5098;48.792;9.012;2023-05-10T00:13:23;4.10;;;0.50;;
10116;SDS011;5098;48.792;9.012;2023-05-10T00:15:49;1.30;;;0.60;;
10116;SDS011;5098;48.792;9.012;2023-05-10T00:18:15;1.03;;;0.60;;
10116;SDS011;5098;48.792;9.012;2023-05-10T00:20:41;0.70;;;0.50;;
10116;SDS011;5098;48.792;9.012;2023-05-10T00:23:07;1.47;;;0.57;;
10116;SDS011;5098;48.792;9.012;2023-05-10T00:25:33;0.90;;;0.60;;
10116;SDS011;5098;48.792;9.012;2023-05-10T00:27:59;0.80;;;0.60;;
10116;SDS011;5098;48.792;9.012;2023-05-10T00:30:26;1.77;;;0.77;;
10116;SDS011;5098;48.792;9.012;2023-05-10T00:32:52;1.00;;;0.70;;
10116;SDS011;5098;48.792;9.012;2023-05-10T00:35:18;9.87;;;8.63;;
10116;SDS011;5098;48.792;9.012;2023-05-10T00:37:44;58.07;;;39.53;;
10116;SDS011;5098;48.792;9.012;2023-05-10T00:40:11;72.83;;;51.97;;
10116;SDS011;5098;48.792;9.012;2023-05-10T00:42:37;29.73;;;20.43;;
10116;SDS011;5098;48.792;9.012;2023-05-10T00:45:03;51.07;;;37.07;;
10116;SDS011;5098;48.792;9.012;2023-05-10T00:47:29;6.23;;;1.53;;
10116;SDS011;5098;48.792;9.012;2023-05-10T00:49:55;0.70;;;0.50;;
10116;SDS011;5098;48.792;9.012;2023-05-10T00:52:21;0.70;;;0.60;;
10116;SDS011;5098;48.792;9.012;2023-05-10T00:54:49;1.37;;;0.70;;
10116;SDS011;5098;48.792;9.012;2023-05-10T00:57:16;0.73;;;0.60;;
10116;SDS011;5098;48.792;9.012;2023-05-10T00:59:42;1.03;;;0.60;;
10116;SDS011;5098;48.792;9.012;2023-05-10T01:02:08;0.90;;;0.60;;
10116;SDS011;5098;48.792;9.012;2023-05-10T01:04:35;0.80;;;0.60;;
10116;SDS011;5098;48.792;9.012;2023-05-10T01:07:02;1.00;;;0.63;;
10116;SDS011;5098;48.792;9.012;2023-05-10T01:09:28;5.73;;;0.70;;
10116;SDS011;5098;48.792;9.012;2023-05-10T01:11:54;1.47;;;0.50;;
10116;SDS011;5098;48.792;9.012;2023-05-10T01:14:20;0.90;;;0.60;;
10116;SDS011;5098;48.792;9.012;2023-05-10T01:16:47;0.90;;;0.70;;
10116;SDS011;5098;48.792;9.012;2023-05-10T01:19:18;2.03;;;0.70;;
10116;SDS011;5098;48.792;9.012;2023-05-10T01:21:48;0.80;;;0.77;;
10116;SDS011;5098;48.792;9.012;2023-05-10T01:27:11;0.90;;;0.87;;
10116;SDS011;5098;48.792;9.012;2023-05-10T01:34:35;1.00;;;0.80;;
10116;SDS011;5098;48.792;9.012;2023-05-10T01:37:04;0.80;;;0.80;;
10116;SDS011;5098;48.792;9.012;2023-05-10T01:39:32;0.90;;;0.90;;
10116;SDS011;5098;48.792;9.012;2023-05-10T01:42:10;1.00;;;0.90;;
10116;SDS011;5098;48.792;9.012;2023-05-10T01:47:12;1.50;;;0.63;;
10116;SDS011;5098;48.792;9.012;2023-05-10T01:49:44;0.80;;;0.80;;
10116;SDS011;5098;48.792;9.012;2023-05-10T01:52:15;0.80;;;0.70;;
10116;SDS011;5098;48.792;9.012;2023-05-10T01:55:00;0.90;;;0.90;;
10116;SDS011;5098;48.792;9.012;2023-05-10T01:57:28;0.70;;;0.63;;
10116;SDS011;5098;48.792;9.012;2023-05-10T01:59:57;1.57;;;0.77;;
10116;SDS011;5098;48.792;9.012;2023-05-10T02:02:24;0.80;;;0.67;;
10116;SDS011;5098;48.792;9.012;2023-05-10T02:04:51;1.03;;;0.70;;
10116;SDS011;5098;48.792;9.012;2023-05-10T02:07:19;1.53;;;0.70;;
10116;SDS011;5098;48.792;9.012;2023-05-10T02:09:45;1.00;;;0.80;;
10116;SDS011;5098;48.792;9.012;2023-05-10T02:12:13;1.00;;;0.90;;
10116;SDS011;5098;48.792;9.012;2023-05-10T02:14:39;2.40;;;0.70;;
10116;SDS011;5098;48.792;9.012;2023-05-10T02:17:07;1.50;;;0.60;;
10116;SDS011;5098;48.792;9.012;2023-05-10T02:19:33;0.90;;;0.70;;
10116;SDS011;5098;48.792;9.012;2023-05-10T02:22:00;0.80;;;0.80;;
10116;SDS011;5098;48.792;9.012;2023-05-10T02:24:26;1.17;;;0.67;;
10116;SDS011;5098;48.792;9.012;2023-05-10T02:26:53;1.00;;;0.80;;
10116;SDS011;5098;48.792;9.012;2023-05-10T02:29:23;0.90;;;0.90;;
10116;SDS011;5098;48.792;9.012;2023-05-10T02:31:54;1.47;;;0.80;;
10116;SDS011;5098;48.792;9.012;2023-05-10T02:34:21;0.90;;;0.90;;
10116;SDS011;5098;48.792;9.012;2023-05-10T02:36:47;1.00;;;0.90;;
10116;SDS011;5098;48.792;9.012;2023-05-10T02:39:14;2.60;;;1.00;;
10116;SDS011;5098;48.792;9.012;2023-05-10T02:41:41;2.87;;;1.03;;
10116;SDS011;5098;48.792;9.012;2023-05-10T02:44:07;3.13;;;0.90;;
10116;SDS011;5098;48.792;9.012;2023-05-10T02:46:34;1.10;;;0.93;;
10116;SDS011;5098;48.792;9.012;2023-05-10T02:49:01;1.17;;;0.80;;
10116;SDS011;5098;48.792;9.012;2023-05-10T02:51:28;4.03;;;1.00;;
10116;SDS011;5098;48.792;9.012;2023-05-10T02:53:56;1.57;;;1.47;;
10116;SDS011;5098;48.792;9.012;2023-05-10T02:56:29;1.60;;;0.90;;
10116;SDS011;5098;48.792;9.012;2023-05-10T02:58:57;1.20;;;0.90;;
10116;SDS011;5098;48.792;9.012;2023-05-10T03:01:23;1.00;;;0.90;;
10116;SDS011;5098;48.792;9.012;2023-05-10T03:03:49;1.10;;;1.00;;
10116;SDS011;5098;48.792;9.012;2023-05-10T03:06:15;1.43;;;1.13;;
10116;SDS011;5098;48.792;9.012;2023-05-10T03:08:42;2.80;;;1.00;;
10116;SDS011;5098;48.792;9.012;2023-05-10T03:11:16;1.50;;;1.33;;
10116;SDS011;5098;48.792;9.012;2023-05-10T03:16:27;3.00;;;1.67;;
10116;SDS011;5098;48.792;9.012;2023-05-10T03:19:02;1.20;;;1.03;;
10116;SDS011;5098;48.792;9.012;2023-05-10T03:21:29;3.03;;;1.70;;
10116;SDS011;5098;48.792;9.012;2023-05-10T03:26:24;2.03;;;1.40;;
10116;SDS011;5098;48.792;9.012;2023-05-10T03:28:51;1.60;;;1.47;;
10116;SDS011;5098;48.792;9.012;2023-05-10T03:31:18;3.10;;;1.30;;
10116;SDS011;5098;48.792;9.012;2023-05-10T03:33:50;1.23;;;1.13;;
10116;SDS011;5098;48.792;9.012;2023-05-10T03:36:17;1.27;;;1.17;;
10116;SDS011;5098;48.792;9.012;2023-05-10T03:38:43;3.93;;;1.63;;
10116;SDS011;5098;48.792;9.012;2023-05-10T03:41:09;3.90;;;1.90;;
10116;SDS011;5098;48.792;9.012;2023-05-10T03:43:36;4.17;;;1.90;;
10116;SDS011;5098;48.792;9.012;2023-05-10T03:46:05;3.63;;;2.03;;
10116;SDS011;5098;48.792;9.012;2023-05-10T03:48:31;7.67;;;2.40;;
10116;SDS011;5098;48.792;9.012;2023-05-10T03:50:58;7.77;;;3.13;;
10116;SDS011;5098;48.792;9.012;2023-05-10T03:53:24;3.00;;;2.10;;
10116;SDS011;5098;48.792;9.012;2023-05-10T03:55:50;1.57;;;1.37;;
10116;SDS011;5098;48.792;9.012;2023-05-10T03:58:16;3.03;;;1.40;;
10116;SDS011;5098;48.792;9.012;2023-05-10T04:00:43;2.63;;;1.37;;
10116;SDS011;5098;48.792;9.012;2023-05-10T04:03:10;1.60;;;1.37;;
10116;SDS011;5098;48.792;9.012;2023-05-10T04:05:36;3.50;;;1.77;;
10116;SDS011;5098;48.792;9.012;2023-05-10T04:08:03;2.60;;;1.53;;
10116;SDS011;5098;48.792;9.012;2023-05-10T04:10:29;2.70;;;1.33;;
10116;SDS011;5098;48.792;9.012;2023-05-10T04:12:55;2.30;;;1.30;;
10116;SDS011;5098;48.792;9.012;2023-05-10T04:15:21;1.30;;;1.20;;
10116;SDS011;5098;48.792;9.012;2023-05-10T04:17:48;1.43;;;1.30;;
10116;SDS011;5098;48.792;9.012;2023-05-10T04:20:15;2.63;;;1.70;;
10116;SDS011;5098;48.792;9.012;2023-05-10T04:22:41;1.40;;;1.30;;
10116;SDS011;5098;48.792;9.012;2023-05-10T04:25:07;2.63;;;1.30;;
10116;SDS011;5098;48.792;9.012;2023-05-10T04:27:33;1.43;;;1.30;;
10116;SDS011;5098;48.792;9.012;2023-05-10T04:29:59;2.10;;;1.00;;
10116;SDS011;5098;48.792;9.012;2023-05-10T04:32:26;2.40;;;1.53;;
10116;SDS011;5098;48.792;9.012;2023-05-10T04:34:52;2.50;;;1.57;;
10116;SDS011;5098;48.792;9.012;2023-05-10T04:37:18;2.83;;;1.70;;
10116;SDS011;5098;48.792;9.012;2023-05-10T04:39:44;3.07;;;1.20;;
10116;SDS011;5098;48.792;9.012;2023-05-10T04:42:10;1.73;;;1.50;;
10116;SDS011;5098;48.792;9.012;2023-05-10T04:44:37;1.50;;;1.40;;
10116;SDS011;5098;48.792;9.012;2023-05-10T04:47:03;2.17;;;1.40;;
10116;SDS011;5098;48.792;9.012;2023-05-10T04:49:29;2.50;;;1.00;;
10116;SDS011;5098;48.792;9.012;2023-05-10T04:51:55;2.23;;;1.40;;
10116;SDS011;5098;48.792;9.012;2023-05-10T04:54:21;1.47;;;1.37;;
10116;SDS011;5098;48.792;9.012;2023-05-10T04:56:47;1.53;;;1.37;;
10116;SDS011;5098;48.792;9.012;2023-05-10T04:59:13;1.53;;;1.43;;
10116;SDS011;5098;48.792;9.012;2023-05-10T05:01:39;1.53;;;1.30;;
10116;SDS011;5098;48.792;9.012;2023-05-10T05:04:06;1.60;;;1.50;;
10116;SDS011;5098;48.792;9.012;2023-05-10T05:06:32;1.70;;;1.57;;
10116;SDS011;5098;48.792;9.012;2023-05-10T05:08:58;1.57;;;1.47;;
10116;SDS011;5098;48.792;9.012;2023-05-10T05:11:24;3.70;;;1.23;;
10116;SDS011;5098;48.792;9.012;2023-05-10T05:13:50;2.00;;;1.53;;
10116;SDS011;5098;48.792;9.012;2023-05-10T05:16:17;1.57;;;1.07;;
10116;SDS011;5098;48.792;9.012;2023-05-10T05:18:43;1.60;;;1.50;;
10116;SDS011;5098;48.792;9.012;2023-05-10T05:21:15;5.23;;;1.60;;
10116;SDS011;5098;48.792;9.012;2023-05-10T05:23:41;3.40;;;1.80;;
10116;SDS011;5098;48.792;9.012;2023-05-10T05:26:07;2.67;;;1.83;;
10116;SDS011;5098;48.792;9.012;2023-05-10T05:28:33;1.60;;;1.37;;
10116;SDS011;5098;48.792;9.012;2023-05-10T05:31:02;1.77;;;1.47;;
10116;SDS011;5098;48.792;9.012;2023-05-10T05:33:28;1.50;;;1.40;;
10116;SDS011;5098;48.792;9.012;2023-05-10T05:35:54;2.50;;;1.40;;
10116;SDS011;5098;48.792;9.012;2023-05-10T05:38:20;2.77;;;1.40;;
10116;SDS011;5098;48.792;9.012;2023-05-10T05:40:46;1.40;;;1.30;;
10116;SDS011;5098;48.792;9.012;2023-05-10T05:43:13;1.70;;;1.30;;
10116;SDS011;5098;48.792;9.012;2023-05-10T05:45:39;4.30;;;1.70;;
10116;SDS011;5098;48.792;9.012;2023-05-10T05:48:05;2.53;;;1.53;;
10116;SDS011;5098;48.792;9.012;2023-05-10T05:50:31;2.17;;;1.40;;
10116;SDS011;5098;48.792;9.012;2023-05-10T05:52:57;2.37;;;1.20;;
10116;SDS011;5098;48.792;9.012;2023-05-10T05:55:23;2.17;;;1.60;;
10116;SDS011;5098;48.792;9.012;2023-05-10T05:57:50;1.40;;;1.30;;
10116;SDS011;5098;48.792;9.012;2023-05-10T06:00:16;1.70;;;1.40;;
10116;SDS011;5098;48.792;9.012;2023-05-10T06:02:43;2.37;;;1.53;;
10116;SDS011;5098;48.792;9.012;2023-05-10T06:05:09;4.70;;;1.40;;
10116;SDS011;5098;48.792;9.012;2023-05-10T06:07:35;3.20;;;1.33;;
10116;SDS011;5098;48.792;9.012;2023-05-10T06:10:01;4.50;;;2.13;;
10116;SDS011;5098;48.792;9.012;2023-05-10T06:12:27;2.00;;;1.80;;
10116;SDS011;5098;48.792;9.012;2023-05-10T06:14:53;2.90;;;1.93;;
10116;SDS011;5098;48.792;9.012;2023-05-10T06:17:20;4.13;;;2.30;;
10116;SDS011;5098;48.792;9.012;2023-05-10T06:19:46;3.63;;;2.30;;
10116;SDS011;5098;48.792;9.012;2023-05-10T06:22:12;2.10;;;1.90;;
10116;SDS011;5098;48.792;9.012;2023-05-10T06:24:38;2.03;;;1.80;;
10116;SDS011;5098;48.792;9.012;2023-05-10T06:27:05;2.13;;;1.93;;
10116;SDS011;5098;48.792;9.012;2023-05-10T06:29:32;3.17;;;2.00;;
10116;SDS011;5098;48.792;9.012;2023-05-10T06:31:58;2.43;;;1.90;;
10116;SDS011;5098;48.792;9.012;2023-05-10T06:34:24;5.10;;;2.10;;
10116;SDS011;5098;48.792;9.012;2023-05-10T06:36:50;2.70;;;1.70;;
10116;SDS011;5098;48.792;9.012;2023-05-10T06:39:16;5.40;;;1.63;;
10116;SDS011;5098;48.792;9.012;2023-05-10T06:41:42;3.17;;;2.00;;
10116;SDS011;5098;48.792;9.012;2023-05-10T06:44:08;2.17;;;1.77;;
10116;SDS011;5098;48.792;9.012;2023-05-10T06:46:35;1.60;;;1.50;;
10116;SDS011;5098;48.792;9.012;2023-05-10T06:49:01;1.33;;;1.23;;
10116;SDS011;5098;48.792;9.012;2023-05-10T06:51:27;1.53;;;1.43;;
10116;SDS011;5098;48.792;9.012;2023-05-10T06:53:53;1.90;;;1.77;;
10116;SDS011;5098;48.792;9.012;2023-05-10T06:56:19;1.80;;;1.60;;
10116;SDS011;5098;48.792;9.012;2023-05-10T06:58:47;2.80;;;1.90;;
10116;SDS011;5098;48.792;9.012;2023-05-10T07:01:13;2.03;;;1.67;;
10116;SDS011;5098;48.792;9.012;2023-05-10T07:03:39;1.80;;;1.70;;
10116;SDS011;5098;48.792;9.012;2023-05-10T07:06:06;1.63;;;1.53;;
10116;SDS011;5098;48.792;9.012;2023-05-10T07:08:35;3.67;;;1.87;;
10116;SDS011;5098;48.792;9.012;2023-05-10T07:13:28;3.03;;;1.90;;
10116;SDS011;5098;48.792;9.012;2023-05-10T07:15:54;2.43;;;1.70;;
10116;SDS011;5098;48.792;9.012;2023-05-10T07:18:20;2.03;;;1.70;;
10116;SDS011;5098;48.792;9.012;2023-05-10T07:20:46;4.90;;;2.10;;
10116;SDS011;5098;48.792;9.012;2023-05-10T07:23:12;1.50;;;1.40;;
10116;SDS011;5098;48.792;9.012;2023-05-10T07:25:38;2.77;;;1.30;;
10116;SDS011;5098;48.792;9.012;2023-05-10T07:28:04;1.50;;;1.40;;
10116;SDS011;5098;48.792;9.012;2023-05-10T07:30:30;6.40;;;1.60;;
10116;SDS011;5098;48.792;9.012;2023-05-10T07:32:56;1.60;;;1.50;;
10116;SDS011;5098;48.792;9.012;2023-05-10T07:35:24;2.67;;;1.60;;
10116;SDS011;5098;48.792;9.012;2023-05-10T07:37:50;4.40;;;1.40;;
10116;SDS011;5098;48.792;9.012;2023-05-10T07:40:16;2.60;;;1.40;;
10116;SDS011;5098;48.792;9.012;2023-05-10T07:42:42;2.50;;;1.63;;
10116;SDS011;5098;48.792;9.012;2023-05-10T07:45:08;3.73;;;1.30;;
10116;SDS011;5098;48.792;9.012;2023-05-10T07:47:34;1.67;;;1.57;;
10116;SDS011;5098;48.792;9.012;2023-05-10T07:50:00;1.50;;;1.10;;
10116;SDS011;5098;48.792;9.012;2023-05-10T07:52:26;1.83;;;1.10;;
10116;SDS011;5098;48.792;9.012;2023-05-10T07:54:53;2.97;;;0.90;;
10116;SDS011;5098;48.792;9.012;2023-05-10T07:57:19;1.73;;;1.10;;
10116;SDS011;5098;48.792;9.012;2023-05-10T07:59:45;1.33;;;0.83;;
10116;SDS011;5098;48.792;9.012;2023-05-10T08:02:11;1.67;;;0.87;;
10116;SDS011;5098;48.792;9.012;2023-05-10T08:04:37;1.27;;;1.10;;
10116;SDS011;5098;48.792;9.012;2023-05-10T08:07:04;1.80;;;1.00;;
10116;SDS011;5098;48.792;9.012;2023-05-10T08:09:30;1.53;;;0.77;;
10116;SDS011;5098;48.792;9.012;2023-05-10T08:11:56;1.40;;;0.97;;
10116;SDS011;5098;48.792;9.012;2023-05-10T08:14:23;1.13;;;0.93;;
10116;SDS011;5098;48.792;9.012;2023-05-10T08:16:49;1.90;;;1.17;;
10116;SDS011;5098;48.792;9.012;2023-05-10T08:19:15;1.10;;;0.80;;
10116;SDS011;5098;48.792;9.012;2023-05-10T08:21:44;1.40;;;0.80;;
10116;SDS011;5098;48.792;9.012;2023-05-10T08:24:10;1.77;;;1.00;;
10116;SDS011;5098;48.792;9.012;2023-05-10T08:26:37;1.03;;;0.93;;
10116;SDS011;5098;48.792;9.012;2023-05-10T08:29:03;1.27;;;0.80;;
10116;SDS011;5098;48.792;9.012;2023-05-10T08:31:29;3.83;;;1.03;;
10116;SDS011;5098;48.792;9.012;2023-05-10T08:33:55;1.33;;;1.00;;
10116;SDS011;5098;48.792;9.012;2023-05-10T08:36:21;1.07;;;0.80;;
10116;SDS011;5098;48.792;9.012;2023-05-10T08:38:52;1.30;;;0.70;;
10116;SDS011;5098;48.792;9.012;2023-05-10T08:41:21;2.23;;;1.00;;
10116;SDS011;5098;48.792;9.012;2023-05-10T08:43:49;2.10;;;0.63;;
10116;SDS011;5098;48.792;9.012;2023-05-10T08:46:16;1.03;;;0.80;;
10116;SDS011;5098;48.792;9.012;2023-05-10T08:48:44;1.63;;;1.00;;
10116;SDS011;5098;48.792;9.012;2023-05-10T08:51:12;1.87;;;0.80;;
10116;SDS011;5098;48.792;9.012;2023-05-10T08:53:39;1.50;;;0.70;;
10116;SDS011;5098;48.792;9.012;2023-05-10T08:56:05;1.50;;;0.80;;
10116;SDS011;5098;48.792;9.012;2023-05-10T08:58:31;3.63;;;0.90;;
10116;SDS011;5098;48.792;9.012;2023-05-10T09:00:58;1.80;;;0.97;;
10116;SDS011;5098;48.792;9.012;2023-05-10T09:03:25;2.20;;;0.90;;
10116;SDS011;5098;48.792;9.012;2023-05-10T09:05:51;1.93;;;1.00;;
10116;SDS011;5098;48.792;9.012;2023-05-10T09:08:17;1.27;;;0.90;;
10116;SDS011;5098;48.792;9.012;2023-05-10T09:10:44;1.10;;;0.80;;
10116;SDS011;5098;48.792;9.012;2023-05-10T09:13:12;1.50;;;0.97;;
10116;SDS011;5098;48.792;9.012;2023-05-10T09:15:40;3.60;;;0.80;;
10116;SDS011;5098;48.792;9.012;2023-05-10T09:18:06;1.63;;;0.77;;
10116;SDS011;5098;48.792;9.012;2023-05-10T09:20:32;1.13;;;0.90;;
10116;SDS011;5098;48.792;9.012;2023-05-10T09:22:58;1.50;;;0.90;;
10116;SDS011;5098;48.792;9.012;2023-05-10T09:25:24;1.77;;;0.87;;
10116;SDS011;5098;48.792;9.012;2023-05-10T09:27:52;2.90;;;1.03;;
10116;SDS011;5098;48.792;9.012;2023-05-10T09:30:30;1.10;;;0.80;;
10116;SDS011;5098;48.792;9.012;2023-05-10T09:32:57;1.10;;;0.90;;
10116;SDS011;5098;48.792;9.012;2023-05-10T09:35:24;1.00;;;0.73;;
10116;SDS011;5098;48.792;9.012;2023-05-10T09:37:50;1.40;;;0.80;;
10116;SDS011;5098;48.792;9.012;2023-05-10T09:40:28;1.03;;;0.80;;
10116;SDS011;5098;48.792;9.012;2023-05-10T09:42:55;1.10;;;0.80;;
10116;SDS011;5098;48.792;9.012;2023-05-10T09:45:22;2.77;;;1.10;;
10116;SDS011;5098;48.792;9.012;2023-05-10T09:47:48;1.40;;;0.80;;
10116;SDS011;5098;48.792;9.012;2023-05-10T09:50:14;1.53;;;0.80;;
10116;SDS011;5098;48.792;9.012;2023-05-10T09:52:59;2.73;;;0.93;;
10116;SDS011;5098;48.792;9.012;2023-05-10T09:55:39;1.20;;;0.80;;
10116;SDS011;5098;48.792;9.012;2023-05-10T09:58:05;1.87;;;0.70;;
10116;SDS011;5098;48.792;9.012;2023-05-10T10:00:36;1.30;;;0.90;;
10116;SDS011;5098;48.792;9.012;2023-05-10T10:03:02;3.20;;;0.80;;
10116;SDS011;5098;48.792;9.012;2023-05-10T10:05:29;4.00;;;1.10;;
10116;SDS011;5098;48.792;9.012;2023-05-10T10:07:56;1.20;;;0.77;;
10116;SDS011;5098;48.792;9.012;2023-05-10T10:10:23;2.10;;;0.83;;
10116;SDS011;5098;48.792;9.012;2023-05-10T10:12:50;1.80;;;1.00;;
10116;SDS011;5098;48.792;9.012;2023-05-10T10:15:16;1.37;;;0.70;;
10116;SDS011;5098;48.792;9.012;2023-05-10T10:17:42;1.10;;;0.70;;
10116;SDS011;5098;48.792;9.012;2023-05-10T10:20:09;1.17;;;0.80;;
10116;SDS011;5098;48.792;9.012;2023-05-10T10:22:36;1.10;;;0.80;;
10116;SDS011;5098;48.792;9.012;2023-05-10T10:25:02;1.10;;;1.00;;
10116;SDS011;5098;48.792;9.012;2023-05-10T10:30:03;1.73;;;0.80;;
10116;SDS011;5098;48.792;9.012;2023-05-10T10:32:55;3.23;;;0.73;;
10116;SDS011;5098;48.792;9.012;2023-05-10T10:35:28;1.77;;;0.70;;
10116;SDS011;5098;48.792;9.012;2023-05-10T10:37:55;1.17;;;0.70;;
10116;SDS011;5098;48.792;9.012;2023-05-10T10:40:28;3.80;;;0.80;;
10116;SDS011;5098;48.792;9.012;2023-05-10T10:42:54;1.87;;;1.00;;
10116;SDS011;5098;48.792;9.012;2023-05-10T10:45:21;1.60;;;0.77;;
10116;SDS011;5098;48.792;9.012;2023-05-10T10:47:47;1.63;;;0.70;;
10116;SDS011;5098;48.792;9.012;2023-05-10T10:50:14;1.20;;;0.90;;
10116;SDS011;5098;48.792;9.012;2023-05-10T10:52:44;3.37;;;0.80;;
10116;SDS011;5098;48.792;9.012;2023-05-10T10:55:17;1.37;;;1.27;;
10116;SDS011;5098;48.792;9.012;2023-05-10T10:57:48;2.77;;;1.27;;
10116;SDS011;5098;48.792;9.012;2023-05-10T11:00:20;2.33;;;1.07;;
10116;SDS011;5098;48.792;9.012;2023-05-10T11:07:55;3.77;;;1.33;;
10116;SDS011;5098;48.792;9.012;2023-05-10T11:10:21;4.43;;;1.90;;
10116;SDS011;5098;48.792;9.012;2023-05-10T11:13:00;6.43;;;2.00;;
10116;SDS011;5098;48.792;9.012;2023-05-10T11:15:34;2.50;;;1.30;;
10116;SDS011;5098;48.792;9.012;2023-05-10T11:18:16;4.03;;;1.90;;
10116;SDS011;5098;48.792;9.012;2023-05-10T11:20:43;2.30;;;1.27;;
10116;SDS011;5098;48.792;9.012;2023-05-10T11:23:12;4.20;;;2.07;;
10116;SDS011;5098;48.792;9.012;2023-05-10T11:25:44;2.50;;;1.20;;
10116;SDS011;5098;48.792;9.012;2023-05-10T11:28:10;1.97;;;0.80;;
10116;SDS011;5098;48.792;9.012;2023-05-10T11:30:40;1.73;;;1.07;;
10116;SDS011;5098;48.792;9.012;2023-05-10T11:33:07;3.10;;;1.70;;
10116;SDS011;5098;48.792;9.012;2023-05-10T11:35:40;5.27;;;3.17;;
10116;SDS011;5098;48.792;9.012;2023-05-10T11:38:09;2.90;;;1.33;;
10116;SDS011;5098;48.792;9.012;2023-05-10T11:40:36;1.73;;;1.10;;
10116;SDS011;5098;48.792;9.012;2023-05-10T11:43:02;1.77;;;0.93;;
10116;SDS011;5098;48.792;9.012;2023-05-10T11:45:31;3.40;;;1.20;;
10116;SDS011;5098;48.792;9.012;2023-05-10T11:47:58;1.20;;;1.00;;
10116;SDS011;5098;48.792;9.012;2023-05-10T11:50:24;1.93;;;1.03;;
10116;SDS011;5098;48.792;9.012;2023-05-10T11:52:54;2.20;;;1.00;;
10116;SDS011;5098;48.792;9.012;2023-05-10T11:55:20;2.23;;;1.20;;
10116;SDS011;5098;48.792;9.012;2023-05-10T11:57:47;2.73;;;0.97;;
10116;SDS011;5098;48.792;9.012;2023-05-10T12:00:13;3.40;;;1.30;;
10116;SDS011;5098;48.792;9.012;2023-05-10T12:02:39;1.63;;;1.27;;
10116;SDS011;5098;48.792;9.012;2023-05-10T12:05:06;2.20;;;1.43;;
10116;SDS011;5098;48.792;9.012;2023-05-10T12:07:32;3.73;;;1.20;;
10116;SDS011;5098;48.792;9.012;2023-05-10T12:10:13;2.33;;;1.27;;
10116;SDS011;5098;48.792;9.012;2023-05-10T12:12:46;2.40;;;1.33;;
10116;SDS011;5098;48.792;9.012;2023-05-10T12:17:45;2.20;;;1.00;;
10116;SDS011;5098;48.792;9.012;2023-05-10T12:20:18;1.30;;;0.97;;
10116;SDS011;5098;48.792;9.012;2023-05-10T12:22:52;1.60;;;1.20;;
10116;SDS011;5098;48.792;9.012;2023-05-10T12:25:19;1.60;;;1.00;;
10116;SDS011;5098;48.792;9.012;2023-05-10T12:27:53;3.70;;;1.20;;
10116;SDS011;5098;48.792;9.012;2023-05-10T12:30:20;3.73;;;1.33;;
10116;SDS011;5098;48.792;9.012;2023-05-10T12:32:47;3.13;;;1.20;;
10116;SDS011;5098;48.792;9.012;2023-05-10T12:35:13;2.23;;;1.10;;
10116;SDS011;5098;48.792;9.012;2023-05-10T12:37:41;2.23;;;1.20;;
10116;SDS011;5098;48.792;9.012;2023-05-10T12:40:08;2.23;;;1.73;;
10116;SDS011;5098;48.792;9.012;2023-05-10T12:42:35;2.37;;;1.43;;
10116;SDS011;5098;48.792;9.012;2023-05-10T12:45:02;2.47;;;1.47;;
10116;SDS011;5098;48.792;9.012;2023-05-10T12:47:28;4.20;;;1.07;;
10116;SDS011;5098;48.792;9.012;2023-05-10T12:49:55;1.30;;;1.00;;
10116;SDS011;5098;48.792;9.012;2023-05-10T12:52:21;1.80;;;1.37;;
10116;SDS011;5098;48.792;9.012;2023-05-10T12:54:47;2.23;;;1.23;;
10116;SDS011;5098;48.792;9.012;2023-05-10T12:57:14;3.77;;;1.20;;
10116;SDS011;5098;48.792;9.012;2023-05-10T12:59:40;2.23;;;1.10;;
10116;SDS011;5098;48.792;9.012;2023-05-10T13:02:06;2.73;;;1.30;;
10116;SDS011;5098;48.792;9.012;2023-05-10T13:04:32;3.00;;;1.27;;
10116;SDS011;5098;48.792;9.012;2023-05-10T13:06:58;3.20;;;1.83;;
10116;SDS011;5098;48.792;9.012;2023-05-10T13:09:25;1.90;;;1.17;;
10116;SDS011;5098;48.792;9.012;2023-05-10T13:11:51;1.77;;;1.10;;
10116;SDS011;5098;48.792;9.012;2023-05-10T13:14:19;4.10;;;1.33;;
10116;SDS011;5098;48.792;9.012;2023-05-10T13:16:46;1.73;;;0.97;;
10116;SDS011;5098;48.792;9.012;2023-05-10T13:19:12;1.90;;;1.27;;
10116;SDS011;5098;48.792;9.012;2023-05-10T13:21:38;2.40;;;1.27;;
10116;SDS011;5098;48.792;9.012;2023-05-10T13:24:06;1.73;;;1.10;;
10116;SDS011;5098;48.792;9.012;2023-05-10T13:26:32;2.43;;;0.90;;
10116;SDS011;5098;48.792;9.012;2023-05-10T13:28:58;1.57;;;1.00;;
10116;SDS011;5098;48.792;9.012;2023-05-10T13:31:24;4.30;;;2.47;;
10116;SDS011;5098;48.792;9.012;2023-05-10T13:33:50;3.20;;;1.50;;
10116;SDS011;5098;48.792;9.012;2023-05-10T13:36:16;1.50;;;0.97;;
10116;SDS011;5098;48.792;9.012;2023-05-10T13:38:42;2.33;;;0.80;;
10116;SDS011;5098;48.792;9.012;2023-05-10T13:41:09;5.80;;;1.40;;
10116;SDS011;5098;48.792;9.012;2023-05-10T13:43:35;1.63;;;1.10;;
10116;SDS011;5098;48.792;9.012;2023-05-10T13:46:02;2.67;;;1.13;;
10116;SDS011;5098;48.792;9.012;2023-05-10T13:48:28;2.23;;;1.00;;
10116;SDS011;5098;48.792;9.012;2023-05-10T13:50:54;2.53;;;1.07;;
10116;SDS011;5098;48.792;9.012;2023-05-10T13:53:20;1.30;;;0.90;;
10116;SDS011;5098;48.792;9.012;2023-05-10T13:55:46;1.73;;;1.00;;
10116;SDS011;5098;48.792;9.012;2023-05-10T13:58:12;2.53;;;1.10;;
10116;SDS011;5098;48.792;9.012;2023-05-10T14:00:38;4.27;;;1.30;;
10116;SDS011;5098;48.792;9.012;2023-05-10T14:03:05;2.80;;;1.20;;
10116;SDS011;5098;48.792;9.012;2023-05-10T14:05:32;1.00;;;0.87;;
10116;SDS011;5098;48.792;9.012;2023-05-10T14:07:58;3.17;;;1.10;;
10116;SDS011;5098;48.792;9.012;2023-05-10T14:10:24;2.03;;;0.90;;
10116;SDS011;5098;48.792;9.012;2023-05-10T14:12:50;2.80;;;1.20;;
10116;SDS011;5098;48.792;9.012;2023-05-10T14:15:16;4.00;;;1.00;;
10116;SDS011;5098;48.792;9.012;2023-05-10T14:17:43;3.00;;;0.93;;
10116;SDS011;5098;48.792;9.012;2023-05-10T14:20:09;1.30;;;1.00;;
10116;SDS011;5098;48.792;9.012;2023-05-10T14:22:35;3.00;;;1.30;;
10116;SDS011;5098;48.792;9.012;2023-05-10T14:25:01;1.60;;;0.87;;
10116;SDS011;5098;48.792;9.012;2023-05-10T14:27:27;1.40;;;1.10;;
10116;SDS011;5098;48.792;9.012;2023-05-10T14:29:53;3.03;;;1.40;;
10116;SDS011;5098;48.792;9.012;2023-05-10T14:32:20;2.50;;;1.30;;
10116;SDS011;5098;48.792;9.012;2023-05-10T14:34:46;2.50;;;1.23;;
10116;SDS011;5098;48.792;9.012;2023-05-10T14:37:13;1.43;;;1.00;;
10116;SDS011;5098;48.792;9.012;2023-05-10T14:39:39;2.17;;;1.00;;
10116;SDS011;5098;48.792;9.012;2023-05-10T14:42:05;1.63;;;1.20;;
10116;SDS011;5098;48.792;9.012;2023-05-10T14:44:31;1.80;;;1.10;;
10116;SDS011;5098;48.792;9.012;2023-05-10T14:46:57;3.37;;;1.20;;
10116;SDS011;5098;48.792;9.012;2023-05-10T14:49:24;2.30;;;1.20;;
10116;SDS011;5098;48.792;9.012;2023-05-10T14:51:51;1.50;;;1.20;;
10116;SDS011;5098;48.792;9.012;2023-05-10T14:54:17;4.70;;;1.00;;
10116;SDS011;5098;48.792;9.012;2023-05-10T14:56:43;1.67;;;1.27;;
10116;SDS011;5098;48.792;9.012;2023-05-10T14:59:10;3.20;;;1.00;;
10116;SDS011;5098;48.792;9.012;2023-05-10T15:01:36;1.93;;;1.10;;
10116;SDS011;5098;48.792;9.012;2023-05-10T15:04:03;1.83;;;1.13;;
10116;SDS011;5098;48.792;9.012;2023-05-10T15:06:32;1.53;;;0.70;;
10116;SDS011;5098;48.792;9.012;2023-05-10T15:08:59;2.53;;;0.90;;
10116;SDS011;5098;48.792;9.012;2023-05-10T15:11:25;1.10;;;0.90;;
10116;SDS011;5098;48.792;9.012;2023-05-10T15:13:52;1.33;;;1.00;;
10116;SDS011;5098;48.792;9.012;2023-05-10T15:16:18;2.10;;;0.90;;
10116;SDS011;5098;48.792;9.012;2023-05-10T15:18:44;1.20;;;0.90;;
10116;SDS011;5098;48.792;9.012;2023-05-10T15:21:11;0.90;;;0.70;;
10116;SDS011;5098;48.792;9.012;2023-05-10T15:23:37;1.77;;;1.17;;
10116;SDS011;5098;48.792;9.012;2023-05-10T15:26:03;4.03;;;1.60;;
10116;SDS011;5098;48.792;9.012;2023-05-10T15:28:29;3.37;;;1.13;;